createdAt,value
2022-08-28T00:02:16.244Z,17.70
2022-08-28T00:04:44.768Z,17.69
2022-08-28T00:07:13.098Z,17.70
2022-08-28T00:09:41.873Z,17.71
2022-08-28T00:12:11.925Z,17.74
2022-08-28T00:14:40.223Z,17.78
2022-08-28T00:17:09.827Z,17.80
2022-08-28T00:19:38.923Z,17.82
2022-08-28T00:22:07.757Z,17.82
2022-08-28T00:24:36.349Z,17.82
2022-08-28T00:27:19.753Z,17.78
2022-08-28T00:29:48.581Z,17.69
2022-08-28T00:32:16.976Z,17.63
2022-08-28T00:34:45.435Z,17.60
2022-08-28T00:37:14.119Z,17.55
2022-08-28T00:39:42.469Z,17.50
2022-08-28T00:42:11.380Z,17.46
2022-08-28T00:44:40.147Z,17.43
2022-08-28T00:47:09.610Z,17.40
2022-08-28T00:49:47.970Z,17.39
2022-08-28T00:52:18.226Z,17.40
2022-08-28T00:54:59.210Z,17.39
2022-08-28T00:57:31.652Z,17.39
2022-08-28T01:00:00.259Z,17.43
2022-08-28T01:02:29.011Z,17.44
2022-08-28T01:04:57.358Z,17.41
2022-08-28T01:07:25.908Z,17.41
2022-08-28T01:09:55.622Z,17.42
2022-08-28T01:12:29.588Z,17.39
2022-08-28T01:15:01.951Z,17.37
2022-08-28T01:17:33.936Z,17.36
2022-08-28T01:20:08.613Z,17.33
2022-08-28T01:22:39.290Z,17.33
2022-08-28T01:25:11.740Z,17.36
2022-08-28T01:27:41.582Z,17.41
2022-08-28T01:30:13.575Z,17.45
2022-08-28T01:32:46.854Z,17.48
2022-08-28T01:35:22.189Z,17.52
2022-08-28T01:37:51.890Z,17.57
2022-08-28T01:40:26.300Z,17.60
2022-08-28T01:42:55.628Z,17.62
2022-08-28T01:45:25.771Z,17.63
2022-08-28T01:47:56.069Z,17.63
2022-08-28T01:50:24.539Z,17.60
2022-08-28T01:52:52.886Z,17.57
2022-08-28T01:55:21.857Z,17.54
2022-08-28T01:57:53.618Z,17.52
2022-08-28T02:00:26.967Z,17.48
2022-08-28T02:02:57.642Z,17.44
2022-08-28T02:05:29.658Z,17.41
2022-08-28T02:07:59.822Z,17.41
2022-08-28T02:10:30.295Z,17.44
2022-08-28T02:12:59.666Z,17.49
2022-08-28T02:15:30.194Z,17.51
2022-08-28T02:17:59.468Z,17.49
2022-08-28T02:20:28.995Z,17.47
2022-08-28T02:22:57.937Z,17.46
2022-08-28T02:25:27.705Z,17.48
2022-08-28T02:27:56.261Z,17.46
2022-08-28T02:30:25.386Z,17.40
2022-08-28T02:32:54.740Z,17.33
2022-08-28T02:35:23.783Z,17.30
2022-08-28T02:37:55.493Z,17.30
2022-08-28T02:40:25.904Z,17.29
2022-08-28T02:42:54.650Z,17.27
2022-08-28T02:45:23.052Z,17.21
2022-08-28T02:47:52.949Z,17.16
2022-08-28T02:50:22.286Z,17.16
2022-08-28T02:52:51.276Z,17.16
2022-08-28T02:55:20.811Z,17.09
2022-08-28T02:57:50.479Z,16.99
2022-08-28T03:00:23.824Z,16.90
2022-08-28T03:02:53.081Z,16.83
2022-08-28T03:05:24.234Z,16.77
2022-08-28T03:07:53.459Z,16.73
2022-08-28T03:10:22.968Z,16.71
2022-08-28T03:12:52.283Z,16.67
2022-08-28T03:15:21.045Z,16.64
2022-08-28T03:17:50.393Z,16.66
2022-08-28T03:20:19.761Z,16.70
2022-08-28T03:23:07.061Z,16.74
2022-08-28T03:25:35.981Z,16.76
2022-08-28T03:28:04.679Z,16.79
2022-08-28T03:30:33.269Z,16.81
2022-08-28T03:33:01.662Z,16.79
2022-08-28T03:35:30.289Z,16.70
2022-08-28T03:37:58.632Z,16.64
2022-08-28T03:40:27.262Z,16.60
2022-08-28T03:42:55.604Z,16.57
2022-08-28T03:45:24.505Z,16.59
2022-08-28T03:47:54.509Z,16.58
2022-08-28T03:50:23.302Z,16.55
2022-08-28T03:52:53.314Z,16.49
2022-08-28T03:55:22.391Z,16.47
2022-08-28T03:57:51.149Z,16.49
2022-08-28T04:00:20.124Z,16.54
2022-08-28T04:02:49.966Z,16.58
2022-08-28T04:05:18.993Z,16.63
2022-08-28T04:07:47.931Z,16.63
2022-08-28T04:10:16.781Z,16.65
2022-08-28T04:12:45.250Z,16.73
2022-08-28T04:15:15.040Z,16.80
2022-08-28T04:17:43.522Z,16.81
2022-08-28T04:20:12.505Z,16.71
2022-08-28T04:22:40.963Z,16.62
2022-08-28T04:25:09.948Z,16.57
2022-08-28T04:27:38.416Z,16.60
2022-08-28T04:30:09.942Z,16.65
2022-08-28T04:32:39.788Z,16.68
2022-08-28T04:35:12.276Z,16.71
2022-08-28T04:37:43.280Z,16.74
2022-08-28T04:40:15.315Z,16.76
2022-08-28T04:42:44.870Z,16.82
2022-08-28T04:45:13.405Z,16.86
2022-08-28T04:47:42.824Z,16.90
2022-08-28T04:50:12.060Z,16.92
2022-08-28T04:52:42.675Z,16.96
2022-08-28T04:55:11.427Z,17.00
2022-08-28T04:57:40.134Z,17.07
2022-08-28T05:00:11.877Z,17.18
2022-08-28T05:02:40.270Z,17.26
2022-08-28T05:05:11.301Z,17.35
2022-08-28T05:07:39.633Z,17.45
2022-08-28T05:10:14.326Z,17.55
2022-08-28T05:12:42.713Z,17.64
2022-08-28T05:15:13.476Z,17.75
2022-08-28T05:17:42.029Z,18.02
2022-08-28T05:20:11.823Z,18.64
2022-08-28T05:22:40.202Z,19.37
2022-08-28T05:25:10.312Z,19.93
2022-08-28T05:27:39.712Z,20.07
2022-08-28T05:30:11.781Z,19.97
2022-08-28T05:32:42.933Z,19.92
2022-08-28T05:35:11.971Z,19.88
2022-08-28T05:37:40.300Z,19.84
2022-08-28T05:40:12.535Z,19.78
2022-08-28T05:42:40.924Z,19.68
2022-08-28T05:45:11.201Z,19.58
2022-08-28T05:47:39.564Z,19.53
2022-08-28T05:50:13.048Z,19.60
2022-08-28T05:52:42.084Z,19.61
2022-08-28T05:55:12.934Z,19.63
2022-08-28T05:57:42.085Z,19.67
2022-08-28T06:00:13.147Z,19.72
2022-08-28T06:02:43.889Z,19.75
2022-08-28T06:05:12.964Z,19.79
2022-08-28T06:07:42.600Z,19.85
2022-08-28T06:10:11.238Z,19.90
2022-08-28T06:12:39.583Z,19.96
2022-08-28T06:15:10.735Z,20.03
2022-08-28T06:17:39.806Z,20.10
2022-08-28T06:20:10.333Z,20.18
2022-08-28T06:22:38.580Z,20.28
2022-08-28T06:25:11.740Z,20.39
2022-08-28T06:27:40.394Z,20.56
2022-08-28T06:30:11.591Z,20.69
2022-08-28T06:32:39.989Z,20.82
2022-08-28T06:35:08.829Z,20.94
2022-08-28T06:37:39.121Z,21.04
2022-08-28T06:40:09.567Z,21.14
2022-08-28T06:42:37.928Z,21.23
2022-08-28T06:45:08.881Z,21.29
2022-08-28T06:47:37.184Z,21.38
2022-08-28T06:50:07.387Z,21.46
2022-08-28T06:52:35.839Z,21.54
2022-08-28T06:55:10.033Z,21.62
2022-08-28T06:57:39.575Z,21.70
2022-08-28T07:00:11.443Z,21.78
2022-08-28T07:02:39.922Z,21.87
2022-08-28T07:05:08.767Z,21.94
2022-08-28T07:07:37.225Z,22.03
2022-08-28T07:10:07.684Z,22.12
2022-08-28T07:12:35.923Z,22.20
2022-08-28T07:15:06.223Z,22.28
2022-08-28T07:17:35.409Z,22.37
2022-08-28T07:20:06.144Z,22.46
2022-08-28T07:22:34.546Z,22.56
2022-08-28T07:25:04.116Z,22.66
2022-08-28T07:27:32.479Z,22.77
2022-08-28T07:30:01.485Z,22.89
2022-08-28T07:32:29.851Z,22.98
2022-08-28T07:34:58.985Z,23.06
2022-08-28T07:37:27.669Z,23.18
2022-08-28T07:39:56.019Z,23.27
2022-08-28T07:42:42.770Z,23.37
2022-08-28T07:45:11.719Z,23.49
2022-08-28T07:47:41.572Z,23.61
2022-08-28T07:50:10.732Z,23.74
2022-08-28T07:52:39.009Z,23.86
2022-08-28T07:55:09.175Z,23.97
2022-08-28T07:57:37.549Z,24.08
2022-08-28T08:00:12.507Z,24.24
2022-08-28T08:02:41.566Z,24.42
2022-08-28T08:05:11.348Z,24.57
2022-08-28T08:07:43.753Z,24.70
2022-08-28T08:10:14.488Z,24.79
2022-08-28T08:12:44.059Z,24.92
2022-08-28T08:15:13.411Z,25.07
2022-08-28T08:17:42.784Z,25.22
2022-08-28T08:20:12.004Z,25.36
2022-08-28T08:22:40.489Z,25.51
2022-08-28T08:25:10.162Z,25.69
2022-08-28T08:27:42.808Z,25.88
2022-08-28T08:30:14.090Z,26.08
2022-08-28T08:32:42.433Z,26.31
2022-08-28T08:35:12.336Z,26.56
2022-08-28T08:37:40.922Z,26.78
2022-08-28T08:40:18.566Z,27.07
2022-08-28T08:42:50.980Z,27.52
2022-08-28T08:45:25.971Z,28.02
2022-08-28T08:47:55.933Z,28.59
2022-08-28T08:50:27.984Z,29.15
2022-08-28T08:53:25.656Z,29.65
2022-08-28T08:55:56.490Z,29.98
2022-08-28T08:58:31.954Z,30.12
2022-08-28T09:01:08.912Z,30.31
2022-08-28T09:03:49.647Z,30.55
2022-08-28T09:06:29.923Z,30.76
2022-08-28T09:09:01.749Z,30.93
2022-08-28T09:11:45.453Z,31.20
2022-08-28T09:14:29.448Z,31.57
2022-08-28T09:16:59.335Z,31.78
2022-08-28T09:19:28.237Z,31.87
2022-08-28T09:21:57.035Z,32.09
2022-08-28T09:24:28.120Z,32.36
2022-08-28T09:27:00.382Z,32.67
2022-08-28T09:29:32.503Z,32.86
2022-08-28T09:32:21.041Z,33.01
2022-08-28T09:35:06.708Z,33.12
2022-08-28T09:37:37.610Z,33.16
2022-08-28T09:40:22.278Z,33.34
2022-08-28T09:43:19.883Z,33.42
2022-08-28T09:45:55.497Z,33.36
2022-08-28T09:48:30.717Z,33.30
2022-08-28T09:51:03.224Z,33.39
2022-08-28T09:53:34.877Z,33.47
2022-08-28T09:56:17.882Z,33.61
2022-08-28T09:58:50.669Z,33.77
2022-08-28T10:01:44.545Z,33.79
2022-08-28T10:04:38.238Z,33.83
2022-08-28T10:07:25.264Z,34.07
2022-08-28T10:10:06.530Z,34.26
2022-08-28T10:12:45.573Z,34.43
2022-08-28T10:15:22.017Z,34.53
2022-08-28T10:18:09.346Z,34.51
2022-08-28T10:20:48.882Z,34.41
2022-08-28T10:23:28.159Z,34.24
2022-08-28T10:26:07.993Z,34.28
2022-08-28T10:28:50.805Z,34.33
2022-08-28T10:31:28.144Z,34.20
2022-08-28T10:34:15.652Z,34.25
2022-08-28T10:36:48.098Z,34.30
2022-08-28T10:39:27.162Z,34.46
2022-08-28T10:42:00.028Z,34.64
2022-08-28T10:44:38.902Z,34.76
2022-08-28T10:47:08.796Z,34.85
2022-08-28T10:49:41.025Z,34.96
2022-08-28T10:52:12.583Z,35.09
2022-08-28T10:54:48.708Z,35.19
2022-08-28T10:57:29.729Z,35.32
2022-08-28T11:00:00.285Z,35.54
2022-08-28T11:02:31.837Z,35.57
2022-08-28T11:05:00.483Z,35.52
2022-08-28T11:07:33.753Z,35.60
2022-08-28T11:10:40.634Z,35.71
2022-08-28T11:13:10.167Z,35.72
2022-08-28T11:15:53.264Z,35.67
2022-08-28T11:18:49.911Z,35.60
2022-08-28T11:21:25.949Z,35.62
2022-08-28T11:24:01.108Z,35.80
2022-08-28T11:26:46.241Z,35.82
2022-08-28T11:29:47.062Z,35.79
2022-08-28T11:32:39.047Z,35.73
2022-08-28T11:35:43.817Z,35.70
2022-08-28T11:38:32.858Z,35.69
2022-08-28T11:41:12.942Z,35.71
2022-08-28T11:43:43.676Z,35.78
2022-08-28T11:46:25.097Z,35.81
2022-08-28T11:48:56.007Z,35.89
2022-08-28T11:51:54.171Z,35.88
2022-08-28T11:54:38.046Z,35.93
2022-08-28T11:57:14.056Z,35.99
2022-08-28T12:00:05.561Z,35.86
2022-08-28T12:02:49.626Z,35.54
2022-08-28T12:05:41.371Z,35.15
2022-08-28T12:08:33.794Z,34.69
2022-08-28T12:11:02.195Z,34.28
2022-08-28T12:13:50.551Z,34.06
2022-08-28T12:16:19.282Z,34.01
2022-08-28T12:19:01.207Z,33.96
2022-08-28T12:21:36.044Z,33.93
2022-08-28T12:24:15.947Z,33.74
2022-08-28T12:26:49.831Z,33.45
2022-08-28T12:29:29.432Z,33.11
2022-08-28T12:32:24.098Z,32.78
2022-08-28T12:35:16.466Z,32.57
2022-08-28T12:37:52.480Z,32.36
2022-08-28T12:40:25.399Z,32.22
2022-08-28T12:42:56.511Z,32.17
2022-08-28T12:45:31.254Z,32.23
2022-08-28T12:48:04.461Z,32.21
2022-08-28T12:50:37.802Z,31.93
2022-08-28T12:53:12.747Z,31.62
2022-08-28T12:55:42.718Z,31.48
2022-08-28T12:58:27.202Z,31.32
2022-08-28T13:00:59.109Z,31.17
2022-08-28T13:03:27.903Z,31.23
2022-08-28T13:06:02.240Z,31.32
2022-08-28T13:08:31.913Z,31.21
2022-08-28T13:11:01.193Z,31.13
2022-08-28T13:13:35.331Z,31.17
2022-08-28T13:16:08.309Z,31.27
2022-08-28T13:18:49.913Z,31.37
2022-08-28T13:21:34.407Z,31.39
2022-08-28T13:24:27.466Z,31.29
2022-08-28T13:27:06.798Z,31.24
2022-08-28T13:29:36.283Z,31.28
2022-08-28T13:32:08.727Z,31.34
2022-08-28T13:34:39.027Z,31.43
2022-08-28T13:37:44.975Z,31.48
2022-08-28T13:40:38.181Z,31.48
2022-08-28T13:43:06.532Z,31.53
2022-08-28T13:45:42.645Z,31.58
2022-08-28T13:48:13.701Z,31.65
2022-08-28T13:50:47.184Z,31.65
2022-08-28T13:53:18.143Z,31.57
2022-08-28T13:55:48.127Z,31.58
2022-08-28T13:58:17.833Z,31.57
2022-08-28T14:00:48.831Z,31.51
2022-08-28T14:03:38.632Z,31.41
2022-08-28T14:06:10.979Z,31.37
2022-08-28T14:08:40.825Z,31.39
2022-08-28T14:11:12.948Z,31.44
2022-08-28T14:13:47.312Z,31.45
2022-08-28T14:16:24.572Z,31.40
2022-08-28T14:18:53.343Z,31.38
2022-08-28T14:21:23.768Z,31.37
2022-08-28T14:23:52.181Z,31.32
2022-08-28T14:26:20.879Z,31.27
2022-08-28T14:28:52.107Z,31.24
2022-08-28T14:31:20.597Z,31.17
2022-08-28T14:33:56.624Z,31.06
2022-08-28T14:36:28.137Z,30.96
2022-08-28T14:39:00.779Z,30.90
2022-08-28T14:41:31.972Z,30.86
2022-08-28T14:44:01.275Z,30.77
2022-08-28T14:46:33.023Z,30.70
2022-08-28T14:49:04.505Z,30.69
2022-08-28T14:51:34.497Z,30.65
2022-08-28T14:54:04.135Z,30.57
2022-08-28T14:56:32.694Z,30.42
2022-08-28T14:59:03.217Z,30.27
2022-08-28T15:01:39.777Z,30.17
2022-08-28T15:04:12.420Z,30.12
2022-08-28T15:06:41.952Z,30.05
2022-08-28T15:09:11.243Z,29.95
2022-08-28T15:11:40.483Z,29.93
2022-08-28T15:14:09.164Z,29.87
2022-08-28T15:16:40.798Z,29.83
2022-08-28T15:19:11.735Z,29.80
2022-08-28T15:21:44.079Z,29.83
2022-08-28T15:24:15.139Z,29.86
2022-08-28T15:26:44.457Z,29.81
2022-08-28T15:29:13.130Z,29.80
2022-08-28T15:31:44.493Z,29.82
2022-08-28T15:34:16.660Z,29.83
2022-08-28T15:36:54.742Z,29.80
2022-08-28T15:39:43.442Z,29.73
2022-08-28T15:42:11.657Z,29.60
2022-08-28T15:44:40.382Z,29.46
2022-08-28T15:47:09.430Z,29.38
2022-08-28T15:49:48.799Z,29.34
2022-08-28T15:52:19.558Z,29.30
2022-08-28T15:54:49.047Z,29.28
2022-08-28T15:57:18.197Z,29.24
2022-08-28T15:59:50.023Z,29.16
2022-08-28T16:02:23.850Z,29.04
2022-08-28T16:04:53.642Z,28.93
2022-08-28T16:07:23.268Z,28.86
2022-08-28T16:09:52.206Z,28.79
2022-08-28T16:12:20.537Z,28.71
2022-08-28T16:14:49.781Z,28.61
2022-08-28T16:17:20.039Z,28.51
2022-08-28T16:19:48.641Z,28.40
2022-08-28T16:22:17.952Z,28.28
2022-08-28T16:24:46.798Z,28.17
2022-08-28T16:27:15.970Z,28.10
2022-08-28T16:29:45.418Z,28.01
2022-08-28T16:32:13.852Z,27.92
2022-08-28T16:34:44.767Z,27.83
2022-08-28T16:37:15.821Z,27.75
2022-08-28T16:39:54.402Z,27.66
2022-08-28T16:42:23.396Z,27.57
2022-08-28T16:44:56.649Z,27.44
2022-08-28T16:47:26.217Z,27.35
2022-08-28T16:49:57.194Z,27.29
2022-08-28T16:52:25.714Z,27.20
2022-08-28T16:54:54.491Z,27.09
2022-08-28T16:57:23.398Z,27.01
2022-08-28T16:59:52.920Z,26.98
2022-08-28T17:02:24.582Z,26.92
2022-08-28T17:04:59.795Z,26.86
2022-08-28T17:07:28.551Z,26.81
2022-08-28T17:09:56.923Z,26.73
2022-08-28T17:12:25.214Z,26.70
2022-08-28T17:14:55.869Z,26.65
2022-08-28T17:17:24.460Z,26.56
2022-08-28T17:19:54.238Z,26.42
2022-08-28T17:22:31.671Z,26.22
2022-08-28T17:25:01.008Z,26.01
2022-08-28T17:27:31.514Z,25.80
2022-08-28T17:30:02.624Z,25.59
2022-08-28T17:32:31.736Z,25.41
2022-08-28T17:35:00.466Z,25.22
2022-08-28T17:37:29.477Z,24.92
2022-08-28T17:39:57.820Z,24.65
2022-08-28T17:42:26.621Z,24.35
2022-08-28T17:44:55.546Z,24.05
2022-08-28T17:47:26.300Z,23.83
2022-08-28T17:50:00.257Z,23.65
2022-08-28T17:52:29.532Z,23.46
2022-08-28T17:54:58.476Z,23.32
2022-08-28T17:57:29.968Z,23.20
2022-08-28T17:59:59.618Z,23.02
2022-08-28T18:02:28.834Z,22.88
2022-08-28T18:04:57.440Z,22.73
2022-08-28T18:07:25.782Z,22.66
2022-08-28T18:09:54.844Z,22.63
2022-08-28T18:12:23.661Z,22.55
2022-08-28T18:14:52.616Z,22.50
2022-08-28T18:17:21.123Z,22.44
2022-08-28T18:19:49.624Z,22.36
2022-08-28T18:22:18.195Z,22.30
2022-08-28T18:24:52.345Z,22.26
2022-08-28T18:27:21.565Z,22.23
2022-08-28T18:29:51.477Z,22.19
2022-08-28T18:32:20.994Z,22.12
2022-08-28T18:34:49.708Z,22.04
2022-08-28T18:37:18.171Z,21.93
2022-08-28T18:39:46.483Z,21.84
2022-08-28T18:42:15.229Z,21.75
2022-08-28T18:44:43.876Z,21.67
2022-08-28T18:47:13.026Z,21.57
2022-08-28T18:49:42.589Z,21.51
2022-08-28T18:52:11.938Z,21.47
2022-08-28T18:54:40.476Z,21.41
2022-08-28T18:57:10.795Z,21.30
2022-08-28T18:59:40.310Z,21.19
2022-08-28T19:02:08.946Z,21.07
2022-08-28T19:04:38.565Z,20.97
2022-08-28T19:07:07.242Z,20.91
2022-08-28T19:09:36.214Z,20.86
2022-08-28T19:12:05.580Z,20.83
2022-08-28T19:14:34.477Z,20.81
2022-08-28T19:17:03.424Z,20.77
2022-08-28T19:19:33.240Z,20.73
2022-08-28T19:22:02.645Z,20.71
2022-08-28T19:24:33.166Z,20.64
2022-08-28T19:27:02.987Z,20.57
2022-08-28T19:29:31.954Z,20.47
2022-08-28T19:32:00.815Z,20.40
2022-08-28T19:34:29.415Z,20.36
2022-08-28T19:36:59.136Z,20.32
2022-08-28T19:39:27.641Z,20.32
2022-08-28T19:41:56.296Z,20.32
2022-08-28T19:44:24.912Z,20.35
2022-08-28T19:46:53.212Z,20.45
2022-08-28T19:49:22.063Z,20.52
2022-08-28T19:51:50.608Z,20.56
2022-08-28T19:54:18.946Z,20.55
2022-08-28T19:56:47.467Z,20.50
2022-08-28T19:59:15.958Z,20.50
2022-08-28T20:01:45.941Z,20.52
2022-08-28T20:04:17.062Z,20.56
2022-08-28T20:06:46.030Z,20.60
2022-08-28T20:09:16.796Z,20.57
2022-08-28T20:11:46.451Z,20.57
2022-08-28T20:14:16.674Z,20.59
2022-08-28T20:16:47.750Z,20.54
2022-08-28T20:19:18.155Z,20.44
2022-08-28T20:21:49.204Z,20.41
2022-08-28T20:24:21.587Z,20.44
2022-08-28T20:26:51.246Z,20.45
2022-08-28T20:29:19.808Z,20.42
2022-08-28T20:31:48.462Z,20.43
2022-08-28T20:34:18.882Z,20.43
2022-08-28T20:36:48.107Z,20.46
2022-08-28T20:39:17.987Z,20.49
2022-08-28T20:41:46.445Z,20.48
2022-08-28T20:44:18.222Z,20.48
2022-08-28T20:46:51.603Z,20.47
2022-08-28T20:49:23.231Z,20.37
2022-08-28T20:51:52.667Z,20.25
2022-08-28T20:54:23.685Z,20.15
2022-08-28T20:56:52.237Z,20.08
2022-08-28T20:59:21.770Z,20.06
2022-08-28T21:01:50.921Z,20.13
2022-08-28T21:04:19.811Z,20.20
2022-08-28T21:06:48.309Z,20.26
2022-08-28T21:09:17.631Z,20.27
2022-08-28T21:11:46.476Z,20.23
2022-08-28T21:14:15.228Z,20.23
2022-08-28T21:16:43.650Z,20.19
2022-08-28T21:19:15.668Z,20.18
2022-08-28T21:21:45.077Z,20.20
2022-08-28T21:24:14.792Z,20.25
2022-08-28T21:26:44.537Z,20.28
2022-08-28T21:29:14.053Z,20.29
2022-08-28T21:31:44.507Z,20.29
2022-08-28T21:34:13.366Z,20.27
2022-08-28T21:36:49.548Z,20.27
2022-08-28T21:39:20.226Z,20.32
2022-08-28T21:41:49.385Z,20.35
2022-08-28T21:44:18.009Z,20.36
2022-08-28T21:46:46.513Z,20.36
2022-08-28T21:49:15.006Z,20.32
2022-08-28T21:51:43.415Z,20.28
2022-08-28T21:54:11.719Z,20.23
2022-08-28T21:56:40.239Z,20.22
2022-08-28T21:59:08.577Z,20.28
2022-08-28T22:01:37.023Z,20.35
2022-08-28T22:04:05.731Z,20.37
2022-08-28T22:06:34.206Z,20.36
2022-08-28T22:09:03.100Z,20.29
2022-08-28T22:11:32.222Z,20.21
2022-08-28T22:14:01.049Z,20.15
2022-08-28T22:16:29.665Z,20.11
2022-08-28T22:18:59.821Z,20.07
2022-08-28T22:21:46.404Z,20.04
2022-08-28T22:24:14.897Z,20.00
2022-08-28T22:26:43.902Z,20.00
2022-08-28T22:29:12.725Z,20.01
2022-08-28T22:31:45.546Z,20.00
2022-08-28T22:34:14.662Z,19.99
2022-08-28T22:36:43.371Z,20.04
2022-08-28T22:39:11.697Z,20.05
2022-08-28T22:41:40.122Z,20.00
2022-08-28T22:44:08.596Z,19.95
2022-08-28T22:46:36.908Z,19.90
2022-08-28T22:49:05.244Z,19.88
2022-08-28T22:51:35.035Z,19.86
2022-08-28T22:54:05.715Z,19.84
2022-08-28T22:56:35.688Z,19.86
2022-08-28T22:59:04.285Z,19.91
2022-08-28T23:01:32.598Z,19.98
2022-08-28T23:04:02.287Z,20.03
2022-08-28T23:06:31.344Z,20.08
2022-08-28T23:08:59.651Z,20.11
2022-08-28T23:11:28.710Z,20.12
2022-08-28T23:13:58.231Z,20.11
2022-08-28T23:16:26.562Z,20.11
2022-08-28T23:19:08.632Z,20.11
2022-08-28T23:21:39.366Z,20.12
2022-08-28T23:24:13.967Z,20.08
2022-08-28T23:26:43.286Z,20.02
2022-08-28T23:29:12.905Z,19.95
2022-08-28T23:31:41.596Z,19.90
2022-08-28T23:34:10.251Z,19.84
2022-08-28T23:36:42.953Z,19.82
2022-08-28T23:39:11.945Z,19.79
2022-08-28T23:41:40.728Z,19.80
2022-08-28T23:44:09.932Z,19.89
2022-08-28T23:46:41.414Z,19.99
2022-08-28T23:49:10.890Z,20.01
2022-08-28T23:51:39.836Z,19.94
2022-08-28T23:54:09.649Z,19.88
2022-08-28T23:56:38.399Z,19.88
2022-08-28T23:59:07.243Z,19.99
